Time;durP1;ratioP1;P1;durP2;ratioP2;P2;SDS_P1;SDS_P2;PMS_P1;PMS_P2;Temp;Humidity;BMP_temperature;BMP_pressure;BME280_temperature;BME280_humidity;BME280_pressure;Samples;Min_cycle;Max_cycle;Signal;HPM_P1;HPM_P2
2021/01/18 00:00:46;;;;;;;37.10;10.82;;;;;;;-11.68;71.01;100177.31;5093514;28;20048;-68
2021/01/18 00:03:15;;;;;;;22.20;9.77;;;;;;;-11.78;70.53;100168.97;5093570;28;20444;-67
2021/01/18 00:05:43;;;;;;;25.80;9.25;;;;;;;-11.94;70.45;100170.69;5093832;28;20068;-68
2021/01/18 00:08:10;;;;;;;26.10;9.93;;;;;;;-12.29;70.63;100144.38;5093447;28;20143;-68
2021/01/18 00:10:37;;;;;;;25.75;9.98;;;;;;;-12.29;71.09;100134.56;5093422;28;20048;-68
2021/01/18 00:13:05;;;;;;;20.55;10.45;;;;;;;-11.97;71.18;100177.81;5093435;28;20490;-68
2021/01/18 00:15:33;;;;;;;36.15;11.77;;;;;;;-11.66;71.37;100170.91;5093455;28;20079;-68
2021/01/18 00:18:02;;;;;;;34.30;11.95;;;;;;;-11.36;71.58;100172.00;5093299;28;20370;-68
2021/01/18 00:20:30;;;;;;;22.60;8.73;;;;;;;-11.39;71.74;100172.59;5093372;28;20054;-68
2021/01/18 00:22:57;;;;;;;30.70;12.38;;;;;;;-11.62;72.16;100167.16;5093310;28;20408;-68
2021/01/18 00:25:25;;;;;;;27.65;11.85;;;;;;;-11.64;71.61;100173.53;5093655;28;20485;-68
2021/01/18 00:27:53;;;;;;;30.33;12.68;;;;;;;-11.58;72.19;100170.75;5093305;28;20032;-67
2021/01/18 00:30:22;;;;;;;29.52;11.63;;;;;;;-11.53;72.73;100165.53;5093260;28;20518;-68
2021/01/18 00:32:51;;;;;;;32.05;11.93;;;;;;;-12.01;72.20;100084.78;5093229;28;20047;-68
2021/01/18 00:35:21;;;;;;;28.00;11.23;;;;;;;-11.33;72.40;100168.25;5095344;28;20055;-68
2021/01/18 00:37:50;;;;;;;33.35;13.27;;;;;;;-11.36;72.49;100172.88;5097025;28;20072;-67
2021/01/18 00:40:20;;;;;;;36.83;13.90;;;;;;;-11.18;72.60;100179.47;5097015;28;20523;-68
2021/01/18 00:42:52;;;;;;;30.92;12.05;;;;;;;-11.11;72.65;100185.84;5097000;28;20485;-68
2021/01/18 00:45:24;;;;;;;33.05;11.98;;;;;;;-11.14;72.33;100180.63;5097256;28;20097;-68
2021/01/18 00:47:54;;;;;;;29.95;11.52;;;;;;;-10.71;72.60;100176.38;5096909;28;20493;-68
2021/01/18 00:50:26;;;;;;;25.60;11.93;;;;;;;-10.74;72.63;100180.16;5096712;28;20135;-68
2021/01/18 00:52:55;;;;;;;36.00;12.48;;;;;;;-10.96;71.93;100183.16;5096827;28;20040;-68
2021/01/18 00:55:25;;;;;;;33.13;12.80;;;;;;;-11.09;72.43;100195.13;5095370;28;20056;-68
2021/01/18 00:58:03;;;;;;;38.25;14.32;;;;;;;-11.30;72.30;100177.50;5096758;28;20052;-68
2021/01/18 01:00:31;;;;;;;37.20;14.13;;;;;;;-11.20;72.73;100200.63;5096543;28;20040;-68
2021/01/18 01:02:59;;;;;;;33.38;11.90;;;;;;;-11.33;72.85;100190.41;5096561;28;20076;-68
2021/01/18 01:05:29;;;;;;;32.38;13.63;;;;;;;-11.24;72.75;100193.72;5097631;28;20076;-68
2021/01/18 01:07:58;;;;;;;39.17;13.27;;;;;;;-11.32;72.48;100174.00;5096477;28;20170;-68
2021/01/18 01:10:28;;;;;;;37.53;12.73;;;;;;;-11.27;72.62;100186.03;5096351;28;20047;-68
2021/01/18 01:12:57;;;;;;;31.40;12.45;;;;;;;-11.16;72.41;100197.75;5096379;28;20452;-68
2021/01/18 01:15:25;;;;;;;28.93;13.17;;;;;;;-11.05;72.63;100202.03;5096330;28;20059;-68
2021/01/18 01:17:53;;;;;;;31.65;11.82;;;;;;;-10.97;72.51;100196.22;5096282;28;20044;-68
2021/01/18 01:20:22;;;;;;;32.10;12.55;;;;;;;-10.82;72.39;100195.88;5096180;28;20414;-67
2021/01/18 01:22:52;;;;;;;37.80;13.27;;;;;;;-10.87;72.38;100192.13;5095060;28;20048;-68
2021/01/18 01:25:21;;;;;;;35.65;12.82;;;;;;;-10.60;72.42;100193.00;5096113;28;20047;-67
2021/01/18 01:27:49;;;;;;;25.85;10.90;;;;;;;-10.99;72.02;100168.09;5096122;28;20055;-68
2021/01/18 01:30:18;;;;;;;33.25;11.77;;;;;;;-10.69;71.73;100191.28;5095998;28;20040;-68
2021/01/18 01:32:47;;;;;;;;;;;;;;;-10.87;72.00;100187.19;5096415;28;20048;-68
2021/01/18 01:35:17;;;;;;;36.78;12.77;;;;;;;-10.92;71.97;100185.16;5095978;28;19920;-68
2021/01/18 01:37:44;;;;;;;29.45;11.75;;;;;;;-11.40;71.29;100195.50;5095868;28;20109;-68
2021/01/18 01:40:17;;;;;;;24.58;10.70;;;;;;;-11.56;71.44;100197.25;5095874;28;20387;-68
2021/01/18 01:42:46;;;;;;;28.20;12.68;;;;;;;-12.14;71.68;100131.09;5095779;28;20090;-68
2021/01/18 01:45:16;;;;;;;33.22;12.50;;;;;;;-11.81;71.76;100203.13;5095917;28;20052;-68
2021/01/18 01:47:47;;;;;;;29.27;12.43;;;;;;;-11.79;72.16;100196.75;5096022;28;20088;-68
2021/01/18 01:50:18;;;;;;;29.90;13.73;;;;;;;-11.61;72.57;100198.41;5095690;28;20135;-68
2021/01/18 01:52:49;;;;;;;33.30;12.75;;;;;;;-11.56;72.43;100202.16;5095557;28;20036;-68
2021/01/18 01:55:24;;;;;;;35.15;12.10;;;;;;;-11.58;72.38;100203.63;5095472;28;20047;-68
2021/01/18 01:57:54;;;;;;;32.45;12.48;;;;;;;-11.24;72.31;100197.75;5095798;28;20070;-68
2021/01/18 02:00:24;;;;;;;39.72;14.30;;;;;;;-11.08;72.77;100196.84;5095505;28;20055;-68
2021/01/18 02:02:52;;;;;;;22.65;8.88;;;;;;;-11.42;72.79;100206.78;5095391;28;20055;-68
2021/01/18 02:05:20;;;;;;;37.45;11.65;;;;;;;-11.40;72.75;100192.16;5095321;28;20440;-68
2021/01/18 02:07:48;;;;;;;36.10;14.70;;;;;;;-11.54;72.63;100190.91;5095252;28;20040;-68
2021/01/18 02:10:15;;;;;;;40.92;13.52;;;;;;;-11.52;72.85;100189.44;5095268;28;20044;-67
2021/01/18 02:12:44;;;;;;;31.83;13.13;;;;;;;-11.52;72.80;100188.56;5095088;28;20052;-67
2021/01/18 02:15:20;;;;;;;26.70;10.40;;;;;;;-11.45;72.14;100186.81;5095543;28;20048;-67
2021/01/18 02:18:03;;;;;;;43.67;12.95;;;;;;;-11.49;72.28;100191.31;5095167;28;20498;-67
2021/01/18 02:21:01;;;;;;;32.22;12.60;;;;;;;-11.37;72.54;100175.22;5095096;28;20044;-68
2021/01/18 02:23:40;;;;;;;36.03;15.48;;;;;;;-11.97;72.68;100084.34;5093820;28;20048;-68
2021/01/18 02:26:13;;;;;;;37.00;12.98;;;;;;;-11.28;72.54;100178.53;5095036;28;20047;-68
2021/01/18 02:28:58;;;;;;;34.88;13.40;;;;;;;-11.09;72.24;100185.25;5094926;28;20044;-68
2021/01/18 02:31:46;;;;;;;28.38;12.15;;;;;;;-10.87;72.30;100178.22;5094862;28;20040;-68
2021/01/18 02:34:40;;;;;;;33.45;12.93;;;;;;;-10.85;72.07;100178.34;5094800;28;20055;-68
2021/01/18 02:37:29;;;;;;;45.47;16.13;;;;;;;-10.74;72.09;100167.84;5094801;28;20189;-68
2021/01/18 02:40:06;;;;;;;37.55;14.73;;;;;;;-10.63;71.83;100172.16;5095019;28;20044;-67
2021/01/18 02:42:41;;;;;;;29.77;11.00;;;;;;;-10.60;71.26;100165.00;5093561;28;20400;-69
2021/01/18 02:45:12;;;;;;;34.95;13.52;;;;;;;-10.98;71.53;100174.78;5094807;28;20056;-68
2021/01/18 02:47:44;;;;;;;33.58;12.77;;;;;;;-10.87;71.66;100175.75;5094598;28;20481;-68
2021/01/18 02:50:12;;;;;;;37.42;13.57;;;;;;;-10.77;71.71;100160.19;5094531;28;20048;-67
2021/01/18 02:52:42;;;;;;;36.35;13.27;;;;;;;-10.85;71.52;100166.03;5094479;28;20062;-68
2021/01/18 02:55:11;;;;;;;33.17;12.63;;;;;;;-11.09;71.24;100136.00;5094085;28;20056;-68
2021/01/18 02:57:40;;;;;;;;;;;;;;;-10.89;71.11;100159.94;5094592;28;20105;-68
2021/01/18 03:00:12;;;;;;;32.13;12.73;;;;;;;-10.98;71.04;100169.84;5094326;28;19942;-68
2021/01/18 03:02:49;;;;;;;31.40;13.32;;;;;;;-11.03;70.70;100166.09;5093168;28;20277;-68
2021/01/18 03:05:30;;;;;;;33.75;12.27;;;;;;;-11.49;70.72;100120.78;5094282;28;20040;-67
2021/01/18 03:08:12;;;;;;;28.40;11.50;;;;;;;-11.57;70.04;100163.53;5094582;28;20044;-67
2021/01/18 03:10:43;;;;;;;30.30;12.15;;;;;;;-11.85;70.75;100157.66;5094133;28;20098;-67
2021/01/18 03:13:17;;;;;;;28.25;11.38;;;;;;;-12.03;70.51;100164.94;5094487;28;20400;-67
2021/01/18 03:15:47;;;;;;;30.73;11.18;;;;;;;-12.20;71.18;100164.91;5094160;28;20047;-67
2021/01/18 03:18:18;;;;;;;28.08;11.23;;;;;;;-12.52;70.58;100115.16;5092944;28;20048;-67
2021/01/18 03:20:47;;;;;;;33.13;10.98;;;;;;;-12.26;70.98;100165.22;5094058;28;20044;-67
2021/01/18 03:23:15;;;;;;;35.60;11.00;;;;;;;-11.98;71.41;100159.72;5094217;28;20055;-67
2021/01/18 03:25:50;;;;;;;27.77;10.95;;;;;;;-12.23;70.78;100163.03;5093990;28;20128;-67
2021/01/18 03:28:19;;;;;;;21.70;10.18;;;;;;;-12.40;71.25;100166.34;5093911;28;20055;-67
2021/01/18 03:30:47;;;;;;;32.40;11.38;;;;;;;-12.87;71.36;100099.53;5093836;28;20082;-67
2021/01/18 03:33:16;;;;;;;28.63;10.80;;;;;;;-12.38;71.64;100174.75;5093844;28;20048;-67
2021/01/18 03:35:44;;;;;;;29.00;11.50;;;;;;;-12.36;71.49;100175.78;5092645;28;20056;-67
2021/01/18 03:38:12;;;;;;;23.02;11.45;;;;;;;-12.51;71.77;100173.44;5093773;28;20074;-67
2021/01/18 03:40:41;;;;;;;24.77;11.03;;;;;;;-12.50;71.82;100167.81;5093814;28;20044;-67
2021/01/18 03:43:09;;;;;;;25.48;11.27;;;;;;;-12.58;72.29;100169.53;5092518;28;20055;-66
2021/01/18 03:45:38;;;;;;;31.80;12.10;;;;;;;-12.65;71.48;100162.28;5093720;28;20498;-67
2021/01/18 03:48:07;;;;;;;28.67;11.25;;;;;;;-12.59;71.74;100164.44;5093619;28;20054;-67
2021/01/18 03:50:35;;;;;;;28.10;12.65;;;;;;;-12.58;71.84;100173.56;5093680;28;20059;-67
2021/01/18 03:53:05;;;;;;;42.92;11.73;;;;;;;-12.49;71.82;100160.56;5093872;28;20048;-67
2021/01/18 03:55:32;;;;;;;37.65;12.23;;;;;;;-12.24;71.87;100167.81;5093350;28;20044;-67
2021/01/18 03:58:01;;;;;;;30.52;11.88;;;;;;;-12.24;71.81;100167.81;5093563;28;20072;-67
2021/01/18 04:00:30;;;;;;;30.30;12.35;;;;;;;-11.85;71.70;100171.59;5093544;28;20056;-67
2021/01/18 04:02:59;;;;;;;30.77;11.73;;;;;;;-11.54;71.92;100166.28;5093576;28;20044;-67
2021/01/18 04:05:27;;;;;;;30.30;11.63;;;;;;;-11.56;71.21;100157.03;5093867;28;20048;-67
2021/01/18 04:07:56;;;;;;;36.15;12.18;;;;;;;-11.66;71.80;100160.22;5093568;28;20055;-67
2021/01/18 04:10:26;;;;;;;35.00;11.80;;;;;;;-11.41;71.88;100148.56;5096307;28;20044;-68
2021/01/18 04:12:53;;;;;;;33.03;11.82;;;;;;;-11.42;71.43;100152.63;5097525;28;20435;-67
2021/01/18 04:15:23;;;;;;;29.65;11.68;;;;;;;-11.37;71.54;100153.91;5097446;28;20404;-67
2021/01/18 04:17:53;;;;;;;31.15;11.68;;;;;;;-11.32;71.54;100151.84;5097511;28;20551;-67
2021/01/18 04:20:22;;;;;;;31.70;11.07;;;;;;;-11.25;71.56;100157.47;5097402;28;20394;-69
2021/01/18 04:22:51;;;;;;;31.05;11.55;;;;;;;-11.29;71.17;100154.59;5097626;28;20080;-67
2021/01/18 04:25:21;;;;;;;28.88;11.50;;;;;;;-11.78;71.57;100065.63;5097246;28;20052;-67
2021/01/18 04:27:51;;;;;;;25.05;10.85;;;;;;;-11.36;71.59;100143.34;5097266;28;20467;-67
2021/01/18 04:30:20;;;;;;;29.42;11.75;;;;;;;-11.39;71.91;100144.63;5097197;28;20089;-67
2021/01/18 04:32:53;;;;;;;32.70;11.80;;;;;;;-11.43;71.88;100141.06;5097104;28;20493;-67
2021/01/18 04:35:21;;;;;;;31.98;11.85;;;;;;;-11.39;71.84;100135.66;5097126;28;20058;-67
2021/01/18 04:37:49;;;;;;;33.42;13.82;;;;;;;-11.39;71.62;100137.25;5096945;28;20066;-68
2021/01/18 04:40:18;;;;;;;31.52;11.35;;;;;;;-11.43;71.57;100141.06;5097050;28;20123;-68
2021/01/18 04:42:46;;;;;;;28.60;12.10;;;;;;;-11.39;71.57;100129.88;5096955;28;20551;-68
2021/01/18 04:45:16;;;;;;;32.17;11.00;;;;;;;-11.29;71.52;100145.63;5097013;28;20048;-67
2021/01/18 04:47:46;;;;;;;34.38;11.77;;;;;;;-11.39;71.96;100135.66;5096911;28;20052;-67
2021/01/18 04:50:15;;;;;;;29.05;9.98;;;;;;;-11.31;71.40;100134.78;5096845;28;20044;-68
2021/01/18 04:52:47;;;;;;;;;;;;;;;-11.19;71.46;100138.34;5097108;28;20101;-68
2021/01/18 04:55:29;;;;;;;28.30;11.45;;;;;;;-11.16;71.18;100136.19;5096643;28;19924;-67
2021/01/18 04:58:05;;;;;;;24.25;8.82;;;;;;;-11.30;71.30;100143.88;5097067;28;20070;-68
2021/01/18 05:00:40;;;;;;;24.15;10.50;;;;;;;-11.46;71.07;100140.75;5096694;28;20099;-68
2021/01/18 05:03:09;;;;;;;24.42;11.48;;;;;;;-11.41;70.87;100149.44;5096600;28;20036;-68
2021/01/18 05:05:59;;;;;;;25.88;11.05;;;;;;;-11.58;71.42;100151.06;5096616;28;20054;-68
2021/01/18 05:08:52;;;;;;;33.88;11.27;;;;;;;-11.33;71.41;100148.56;5096501;28;20047;-68
2021/01/18 05:11:21;;;;;;;25.38;9.70;;;;;;;-11.25;71.12;100157.47;5096392;28;20409;-68
2021/01/18 05:13:49;;;;;;;33.00;10.23;;;;;;;-11.42;71.12;100160.00;5095135;28;20075;-67
2021/01/18 05:16:16;;;;;;;25.42;9.05;;;;;;;-11.29;70.96;100155.47;5096340;28;20047;-68
2021/01/18 05:18:49;;;;;;;25.38;9.85;;;;;;;-11.78;70.86;100068.09;5095416;28;20119;-68
2021/01/18 05:21:17;;;;;;;24.08;9.98;;;;;;;-11.36;70.94;100160.56;5095736;28;20051;-68
2021/01/18 05:23:46;;;;;;;19.55;8.13;;;;;;;-11.41;71.28;100154.38;5096487;28;20126;-68
2021/01/18 05:26:15;;;;;;;36.75;10.27;;;;;;;-11.34;71.05;100156.66;5096187;28;20127;-68
2021/01/18 05:28:44;;;;;;;27.52;11.18;;;;;;;-11.90;71.22;100049.75;5096063;28;20052;-68
2021/01/18 05:31:30;;;;;;;;;;;;;;;-11.25;70.85;100152.56;5096447;28;20052;-68
2021/01/18 05:34:00;;;;;;;30.08;10.45;;;;;;;-11.10;71.11;100153.97;5096010;28;19920;-67
2021/01/18 05:36:39;;;;;;;29.58;12.13;;;;;;;-11.07;70.63;100154.25;5095938;28;20059;-68
2021/01/18 05:39:13;;;;;;;36.50;9.73;;;;;;;-11.01;70.71;100153.91;5095957;28;20048;-67
2021/01/18 05:41:43;;;;;;;31.20;9.98;;;;;;;-10.94;70.54;100166.91;5095910;28;20048;-67
2021/01/18 05:44:11;;;;;;;23.48;9.65;;;;;;;-10.98;71.07;100169.84;5095755;28;20067;-67
2021/01/18 05:46:40;;;;;;;28.08;10.10;;;;;;;-10.88;70.99;100166.63;5095749;28;20083;-68
2021/01/18 05:49:09;;;;;;;;;;;;;;;-10.81;71.06;100160.63;5096476;28;20127;-67
2021/01/18 05:51:37;;;;;;;20.40;7.80;;;;;;;-10.81;70.34;100158.16;5095649;28;19956;-68
2021/01/18 05:54:07;;;;;;;22.42;10.10;;;;;;;-10.72;70.80;100163.94;5095687;28;20490;-68
2021/01/18 05:56:39;;;;;;;;;;;;;;;-10.59;71.46;100161.81;5094834;28;20093;-68
2021/01/18 05:59:18;;;;;;;32.35;10.60;;;;;;;-10.58;70.99;100169.34;5096133;28;19924;-67
2021/01/18 06:01:47;;;;;;;25.33;9.93;;;;;;;-10.55;70.42;100168.75;5095840;28;20044;-68
2021/01/18 06:04:15;;;;;;;36.22;11.68;;;;;;;-10.50;70.42;100173.34;5095803;28;20117;-68
2021/01/18 06:06:51;;;;;;;28.65;10.82;;;;;;;-10.93;70.13;100093.88;5095362;28;20048;-68
2021/01/18 06:09:21;;;;;;;27.85;10.75;;;;;;;-10.38;70.56;100173.56;5095392;28;20048;-68
2021/01/18 06:11:49;;;;;;;26.45;9.95;;;;;;;-10.36;70.67;100172.09;5095163;28;20059;-68
2021/01/18 06:14:18;;;;;;;31.05;10.63;;;;;;;-10.40;70.34;100170.09;5095249;28;20405;-68
2021/01/18 06:16:48;;;;;;;30.30;9.18;;;;;;;-10.43;70.17;100167.34;5095180;28;20568;-68
2021/01/18 06:19:27;;;;;;;28.58;10.45;;;;;;;-10.39;70.78;100171.84;5095506;28;20143;-68
2021/01/18 06:22:06;;;;;;;24.63;10.23;;;;;;;-10.55;70.78;100168.75;5095472;28;20048;-68
2021/01/18 06:24:38;;;;;;;20.48;8.95;;;;;;;-10.61;70.16;100158.34;5095078;28;20098;-68
2021/01/18 06:27:07;;;;;;;20.33;9.75;;;;;;;-10.54;70.40;100171.34;5094908;28;20066;-67
2021/01/18 06:29:41;;;;;;;26.23;10.73;;;;;;;-10.45;70.95;100156.50;5094984;28;20079;-68
2021/01/18 06:32:29;;;;;;;21.00;8.23;;;;;;;-10.38;70.69;100156.31;5093964;28;20102;-68
2021/01/18 06:35:08;;;;;;;32.72;10.60;;;;;;;-10.44;70.29;100163.19;5095249;28;20044;-68
2021/01/18 06:37:37;;;;;;;30.88;11.63;;;;;;;-10.38;70.07;100164.56;5094754;28;20044;-68
2021/01/18 06:40:26;;;;;;;27.27;9.98;;;;;;;-10.48;70.00;100171.00;5094846;28;20051;-67
2021/01/18 06:42:59;;;;;;;31.05;9.55;;;;;;;-10.45;69.98;100173.75;5094645;28;20455;-68
2021/01/18 06:45:39;;;;;;;21.35;8.82;;;;;;;-10.48;69.82;100175.94;5094726;28;20132;-68
2021/01/18 06:48:09;;;;;;;24.73;9.57;;;;;;;-10.50;70.08;100172.47;5094569;28;20048;-68
2021/01/18 06:50:39;;;;;;;;;;;;;;;-10.52;69.82;100178.88;5094992;28;20044;-68
2021/01/18 06:53:23;;;;;;;28.67;10.82;;;;;;;-10.33;69.98;100173.25;5094535;28;19969;-68
2021/01/18 06:56:34;;;;;;;26.27;9.85;;;;;;;-10.33;68.31;100182.22;5094859;28;20043;-68
2021/01/18 06:59:33;;;;;;;26.55;9.90;;;;;;;-10.15;68.34;100173.13;5094442;28;20052;-68
2021/01/18 07:02:22;;;;;;;26.92;10.65;;;;;;;-9.53;67.78;100174.44;5094405;28;20452;-67
2021/01/18 07:05:09;;;;;;;29.95;12.18;;;;;;;-9.59;66.76;100172.28;5094321;28;20060;-68
2021/01/18 07:07:39;;;;;;;25.58;9.48;;;;;;;-10.22;67.20;100152.00;5094305;28;20071;-68
2021/01/18 07:10:22;;;;;;;28.80;10.35;;;;;;;-10.69;67.50;100134.59;5094261;28;20082;-68
2021/01/18 07:12:58;;;;;;;31.08;12.25;;;;;;;-10.45;68.08;100186.97;5094134;28;20044;-67
2021/01/18 07:15:44;;;;;;;37.25;12.57;;;;;;;-10.44;68.34;100192.75;5094093;28;20490;-68
2021/01/18 07:18:35;;;;;;;30.10;11.50;;;;;;;-10.37;68.37;100190.09;5094174;28;20109;-67
2021/01/18 07:21:04;;;;;;;31.60;12.27;;;;;;;-10.41;68.45;100193.88;5094340;28;20127;-68
2021/01/18 07:23:47;;;;;;;;;;;;;;;-10.28;67.79;100191.78;5094792;28;20040;-68
2021/01/18 07:26:38;;;;;;;28.10;9.80;;;;;;;-9.89;67.71;100204.22;5093969;28;20431;-68
2021/01/18 07:29:18;;;;;;;34.65;10.80;;;;;;;-9.77;67.71;100180.59;5094013;28;20075;-68
2021/01/18 07:31:59;;;;;;;30.33;10.65;;;;;;;-9.59;67.58;100201.91;5093902;28;20117;-68
2021/01/18 07:34:37;;;;;;;31.48;10.93;;;;;;;-9.54;66.64;100209.72;5094010;28;20062;-68
2021/01/18 07:37:17;;;;;;;31.25;11.38;;;;;;;-9.75;66.92;100213.69;5094286;28;20078;-68
2021/01/18 07:40:09;;;;;;;32.25;11.85;;;;;;;-10.28;67.08;100132.59;5094198;28;20052;-68
2021/01/18 07:42:38;;;;;;;30.52;11.18;;;;;;;-9.99;67.32;100216.50;5093789;28;20468;-68
2021/01/18 07:45:14;;;;;;;28.33;11.10;;;;;;;-9.92;67.65;100213.84;5093571;28;20056;-68
2021/01/18 07:48:06;;;;;;;32.73;9.73;;;;;;;-9.82;67.43;100216.38;5093726;28;20507;-68
2021/01/18 07:50:42;;;;;;;34.80;11.45;;;;;;;-9.63;67.77;100217.22;5093758;28;20043;-68
2021/01/18 07:53:31;;;;;;;30.73;11.60;;;;;;;-9.63;67.18;100222.16;5093430;28;20039;-68
2021/01/18 07:56:09;;;;;;;36.25;12.38;;;;;;;-9.51;67.57;100219.88;5093775;28;20417;-68
2021/01/18 07:58:44;;;;;;;32.10;10.50;;;;;;;-9.49;66.36;100222.47;5093567;28;20379;-68
2021/01/18 08:01:27;;;;;;;33.58;11.48;;;;;;;-9.65;67.28;100201.41;5093697;28;20048;-68
2021/01/18 08:04:17;;;;;;;30.30;10.13;;;;;;;-9.26;67.18;100208.00;5092542;28;20044;-68
2021/01/18 08:07:04;;;;;;;21.77;10.60;;;;;;;-9.19;66.40;100216.03;5093854;28;20093;-68
2021/01/18 08:09:32;;;;;;;33.42;12.82;;;;;;;-9.26;66.88;100193.19;5093859;28;20087;-68
2021/01/18 08:12:25;;;;;;;28.98;11.52;;;;;;;-9.21;66.73;100206.78;5093461;28;20478;-68
2021/01/18 08:15:06;;;;;;;28.95;11.32;;;;;;;-9.09;66.47;100217.69;5093540;28;20415;-68
2021/01/18 08:17:45;;;;;;;31.65;12.35;;;;;;;-8.85;66.22;100216.41;5093802;28;20052;-68
2021/01/18 08:20:29;;;;;;;33.40;11.77;;;;;;;-8.71;66.27;100218.41;5093521;28;20056;-68
2021/01/18 08:22:59;;;;;;;40.22;19.55;;;;;;;-8.56;66.51;100220.53;5093361;28;20086;-69
2021/01/18 08:25:39;;;;;;;31.63;10.40;;;;;;;-8.63;65.51;100225.72;5093751;28;20109;-68
2021/01/18 08:28:25;;;;;;;31.58;11.85;;;;;;;-8.91;65.74;100172.25;5093267;28;20059;-68
2021/01/18 08:31:03;;;;;;;25.60;10.88;;;;;;;-8.60;65.91;100212.72;5093369;28;20044;-68
2021/01/18 08:33:37;;;;;;;37.08;12.48;;;;;;;-9.04;65.41;100142.31;5093199;28;20055;-68
2021/01/18 08:36:11;;;;;;;30.23;10.93;;;;;;;-8.46;65.72;100213.13;5093271;28;20072;-68
2021/01/18 08:38:46;;;;;;;29.65;11.25;;;;;;;-8.51;65.29;100209.41;5093246;28;20044;-69
2021/01/18 08:41:14;;;;;;;28.73;9.80;;;;;;;-8.43;64.63;100218.31;5093286;28;20044;-69
2021/01/18 08:43:54;;;;;;;31.47;10.00;;;;;;;-8.66;65.24;100210.63;5093170;28;20051;-69
2021/01/18 08:46:42;;;;;;;27.45;10.25;;;;;;;-8.81;64.87;100211.84;5093035;28;20051;-68
2021/01/18 08:49:20;;;;;;;;;;;;;;;-8.84;65.25;100220.59;5093588;28;20109;-69
2021/01/18 08:52:00;;;;;;;22.10;9.40;;;;;;;-8.74;66.10;100214.09;5093187;28;19989;-68
2021/01/18 08:54:33;;;;;;;21.75;8.57;;;;;;;-8.60;66.07;100213.59;5093029;28;20044;-68
2021/01/18 08:57:25;;;;;;;25.65;9.45;;;;;;;-8.32;65.16;100210.16;5096525;28;20136;-68
2021/01/18 09:00:06;;;;;;;23.58;9.80;;;;;;;-7.99;64.56;100218.53;5096676;28;20083;-69
2021/01/18 09:02:34;;;;;;;29.02;10.73;;;;;;;-7.76;64.51;100211.31;5096731;28;20063;-69
2021/01/18 09:05:17;;;;;;;31.67;10.25;;;;;;;-7.41;64.41;100209.97;5095498;28;20136;-69
2021/01/18 09:07:56;;;;;;;28.92;8.98;;;;;;;-6.97;63.52;100214.25;5096519;28;20131;-69
2021/01/18 09:10:28;;;;;;;26.50;10.45;;;;;;;-6.73;62.27;100221.81;5096543;28;20414;-69
2021/01/18 09:13:07;;;;;;;;;;;;;;;-6.55;61.88;100216.59;5097140;28;20044;-69
2021/01/18 09:15:36;;;;;;;28.17;10.63;;;;;;;-6.25;61.83;100215.50;5096669;28;20369;-69
2021/01/18 09:18:19;;;;;;;30.27;11.00;;;;;;;-6.27;61.38;100188.09;5096116;28;20136;-69
2021/01/18 09:20:59;;;;;;;24.30;11.10;;;;;;;-5.98;60.63;100211.69;5096284;28;20043;-69
2021/01/18 09:23:29;;;;;;;28.45;12.00;;;;;;;-5.95;60.71;100201.97;5096046;28;20555;-69
2021/01/18 09:26:11;;;;;;;28.27;10.68;;;;;;;-5.95;59.42;100212.75;5096240;28;20516;-69
2021/01/18 09:28:51;;;;;;;32.45;12.52;;;;;;;-5.70;59.75;100206.28;5096148;28;20130;-69
2021/01/18 09:31:20;;;;;;;33.38;12.40;;;;;;;-5.48;59.73;100209.53;5096144;28;20051;-69
2021/01/18 09:34:10;;;;;;;;;;;;;;;-5.29;59.93;100208.31;5096444;28;20036;-69
2021/01/18 09:36:40;;;;;;;25.58;10.25;;;;;;;-5.34;58.83;100207.13;5096112;28;19927;-69
2021/01/18 09:39:19;;;;;;;30.23;11.32;;;;;;;-5.10;58.86;100203.84;5095800;28;20555;-69
2021/01/18 09:42:22;;;;;;;29.85;10.60;;;;;;;-4.98;58.77;100204.69;5095855;28;20051;-69
2021/01/18 09:44:54;;;;;;;45.67;12.25;;;;;;;-4.90;58.09;100209.44;5095767;28;20466;-69
2021/01/18 09:47:25;;;;;;;32.55;12.10;;;;;;;-4.77;57.79;100212.00;5095824;28;20047;-69
2021/01/18 09:49:54;;;;;;;27.63;11.57;;;;;;;-4.74;57.32;100211.34;5095628;28;20485;-69
2021/01/18 09:52:32;;;;;;;31.60;11.77;;;;;;;-5.05;57.02;100208.41;5096031;28;20102;-69
2021/01/18 09:55:15;;;;;;;29.83;11.25;;;;;;;-5.08;56.85;100193.25;5095623;28;20052;-69
2021/01/18 09:57:58;;;;;;;30.67;11.20;;;;;;;-4.99;57.48;100200.50;5095723;28;20040;-69
2021/01/18 10:00:30;;;;;;;26.42;10.75;;;;;;;-5.00;57.22;100203.72;5094404;28;20093;-69
2021/01/18 10:03:00;;;;;;;25.55;9.15;;;;;;;-4.90;56.87;100196.13;5095573;28;20044;-69
2021/01/18 10:05:41;;;;;;;29.98;11.80;;;;;;;-4.87;57.19;100192.22;5095505;28;20178;-69
2021/01/18 10:08:21;;;;;;;30.95;11.05;;;;;;;-4.70;57.15;100197.47;5095291;28;20428;-69
2021/01/18 10:11:00;;;;;;;22.52;10.50;;;;;;;-4.70;56.17;100190.84;5095300;28;20498;-69
2021/01/18 10:13:42;;;;;;;21.45;9.60;;;;;;;-5.16;55.90;100163.66;5095293;28;20079;-68
2021/01/18 10:16:14;;;;;;;32.35;11.25;;;;;;;-4.99;57.49;100180.59;5095070;28;20097;-68
2021/01/18 10:18:53;;;;;;;29.50;11.88;;;;;;;-5.07;57.19;100184.16;5095326;28;20047;-68
2021/01/18 10:21:33;;;;;;;32.10;11.35;;;;;;;-5.40;57.82;100152.03;5094924;28;20116;-68
2021/01/18 10:24:05;;;;;;;9.88;6.15;;;;;;;-6.08;58.13;100159.63;5093976;28;20519;-67
2021/01/18 10:26:43;;;;;;;24.60;10.00;;;;;;;-6.32;60.35;100195.97;5095023;28;20043;-67
2021/01/18 10:29:23;;;;;;;35.25;12.40;;;;;;;-6.24;60.40;100162.63;5095061;28;20044;-67
2021/01/18 10:31:57;;;;;;;34.97;13.15;;;;;;;-5.65;59.74;100170.19;5094837;28;20048;-67
2021/01/18 10:34:36;;;;;;;27.33;12.15;;;;;;;-5.13;59.10;100188.72;5095007;28;20048;-67
2021/01/18 10:37:27;;;;;;;14.05;7.28;;;;;;;-5.41;57.82;100176.00;5094786;28;20048;-67
2021/01/18 10:40:04;;;;;;;20.85;8.98;;;;;;;-5.99;58.97;100200.88;5094835;28;20044;-67
2021/01/18 10:42:51;;;;;;;28.05;9.48;;;;;;;-6.06;59.83;100176.38;5094794;28;20101;-67
2021/01/18 10:45:32;;;;;;;28.45;11.45;;;;;;;-5.43;59.15;100190.84;5095350;28;20063;-67
2021/01/18 10:48:11;;;;;;;26.23;11.88;;;;;;;-5.15;58.33;100160.38;5095000;28;20051;-68
2021/01/18 10:50:55;;;;;;;27.10;11.43;;;;;;;-4.78;58.22;100185.38;5094908;28;20401;-67
2021/01/18 10:53:35;;;;;;;19.45;9.55;;;;;;;-5.28;58.17;100170.28;5094524;28;20052;-68
2021/01/18 10:56:30;;;;;;;28.17;11.18;;;;;;;-5.13;58.49;100173.78;5095270;28;20060;-67
2021/01/18 10:58:58;;;;;;;21.52;10.85;;;;;;;-5.34;58.27;100163.25;5094476;28;20051;-67
2021/01/18 11:01:28;;;;;;;30.30;12.05;;;;;;;-5.05;57.46;100157.78;5094344;28;20051;-67
2021/01/18 11:04:05;;;;;;;37.38;11.52;;;;;;;-5.27;57.58;100142.13;5094366;28;20133;-67
2021/01/18 11:06:44;;;;;;;31.48;12.70;;;;;;;-4.75;57.28;100170.63;5094075;28;20047;-69
2021/01/18 11:09:30;;;;;;;28.10;13.57;;;;;;;-4.47;57.25;100167.50;5094267;28;20051;-68
2021/01/18 11:12:09;;;;;;;34.03;12.07;;;;;;;-4.24;56.06;100163.25;5094130;28;20046;-68
2021/01/18 11:14:40;;;;;;;36.90;14.55;;;;;;;-4.31;56.23;100165.22;5094197;28;20052;-68
2021/01/18 11:17:12;;;;;;;32.42;13.68;;;;;;;-4.13;56.17;100157.31;5094070;28;20055;-68
2021/01/18 11:19:50;;;;;;;27.17;11.88;;;;;;;-4.28;55.56;100153.84;5093558;28;20409;-69
2021/01/18 11:22:28;;;;;;;15.85;7.70;;;;;;;-4.66;56.22;100160.44;5093635;28;20056;-69
2021/01/18 11:25:02;;;;;;;11.68;5.72;;;;;;;-4.29;56.64;100144.63;5093890;28;20040;-68
2021/01/18 11:27:30;;;;;;;33.30;14.13;;;;;;;-4.43;57.07;100155.34;5093829;28;20051;-67
2021/01/18 11:29:58;;;;;;;29.17;13.13;;;;;;;-4.51;57.13;100161.44;5093895;28;20079;-67
2021/01/18 11:32:26;;;;;;;34.40;14.20;;;;;;;-4.15;56.76;100148.03;5093815;28;20485;-67
2021/01/18 11:34:55;;;;;;;37.65;15.80;;;;;;;-3.93;56.04;100152.72;5094166;28;20055;-67
2021/01/18 11:37:27;;;;;;;34.78;14.77;;;;;;;-4.01;55.75;100151.41;5093924;28;20055;-67
2021/01/18 11:40:01;;;;;;;38.50;14.77;;;;;;;-4.10;55.60;100139.19;5093840;28;20048;-67
2021/01/18 11:42:29;;;;;;;36.20;13.68;;;;;;;-3.92;55.51;100147.00;5093828;28;20071;-67